createdAt,value
2023-08-13T00:00:25.286Z,96145.97
2023-08-13T00:02:52.781Z,96153.81
2023-08-13T00:05:20.593Z,96134.56
2023-08-13T00:07:48.063Z,96141.78
2023-08-13T00:10:15.559Z,96149.75
2023-08-13T00:12:43.117Z,96163.97
2023-08-13T00:15:12.768Z,96145.66
2023-08-13T00:17:41.472Z,96147.75
2023-08-13T00:20:10.740Z,96149.94
2023-08-13T00:22:38.254Z,96154.69
2023-08-13T00:25:06.804Z,96162.50
2023-08-13T00:27:34.294Z,96146.47
2023-08-13T00:30:01.771Z,96142.50
2023-08-13T00:32:30.645Z,96134.09
2023-08-13T00:34:58.177Z,96141.22
2023-08-13T00:37:25.656Z,96131.19
2023-08-13T00:39:53.128Z,96148.03
2023-08-13T00:42:20.619Z,96147.75
2023-08-13T00:44:48.167Z,96145.13
2023-08-13T00:47:15.853Z,96145.19
2023-08-13T00:49:44.883Z,96136.66
2023-08-13T00:52:12.941Z,96131.22
2023-08-13T00:54:40.820Z,96155.84
2023-08-13T00:57:09.486Z,96149.31
2023-08-13T00:59:37.203Z,96148.84
2023-08-13T01:02:05.188Z,96145.31
2023-08-13T01:04:32.732Z,96148.69
2023-08-13T01:07:11.232Z,96155.31
2023-08-13T01:09:45.591Z,96145.00
2023-08-13T01:12:22.918Z,96144.00
2023-08-13T01:14:57.868Z,96155.06
2023-08-13T01:17:28.143Z,96151.47
2023-08-13T01:19:55.904Z,96150.25
2023-08-13T01:22:28.230Z,96149.00
2023-08-13T01:24:56.076Z,96153.81
2023-08-13T01:27:34.974Z,96140.72
2023-08-13T01:30:09.060Z,96150.22
2023-08-13T01:32:41.609Z,96147.34
2023-08-13T01:35:11.420Z,96152.88
2023-08-13T01:37:40.628Z,96149.75
2023-08-13T01:40:09.307Z,96156.81
2023-08-13T01:42:36.792Z,96155.03
2023-08-13T01:45:04.772Z,96153.66
2023-08-13T01:47:32.660Z,96138.97
2023-08-13T01:50:00.186Z,96151.38
2023-08-13T01:52:27.681Z,96135.94
2023-08-13T01:54:56.535Z,96147.81
2023-08-13T01:57:24.105Z,96142.31
2023-08-13T01:59:51.628Z,96157.84
2023-08-13T02:02:19.177Z,96154.13
2023-08-13T02:04:46.693Z,96149.44
2023-08-13T02:07:14.243Z,96151.56
2023-08-13T02:09:41.838Z,96148.69
2023-08-13T02:12:10.665Z,96139.75
2023-08-13T02:14:38.149Z,96140.06
2023-08-13T02:17:06.252Z,96136.16
2023-08-13T02:19:33.766Z,96136.88
2023-08-13T02:22:01.244Z,96129.03
2023-08-13T02:24:29.757Z,96125.97
2023-08-13T02:26:57.212Z,96127.06
2023-08-13T02:29:26.290Z,96138.91
2023-08-13T02:31:53.779Z,96127.63
2023-08-13T02:34:21.247Z,96137.88
2023-08-13T02:36:48.702Z,96132.88
2023-08-13T02:39:16.259Z,96138.66
2023-08-13T02:41:43.741Z,96138.69
2023-08-13T02:44:11.255Z,96137.09
2023-08-13T02:46:40.183Z,96136.84
2023-08-13T02:49:07.803Z,96137.63
2023-08-13T02:51:35.280Z,96131.84
2023-08-13T02:54:02.793Z,96128.97
2023-08-13T02:56:30.312Z,96133.41
2023-08-13T02:58:57.782Z,96119.03
2023-08-13T03:01:25.304Z,96129.00
2023-08-13T03:03:54.990Z,96127.16
2023-08-13T03:06:23.092Z,96122.72
2023-08-13T03:08:50.697Z,96120.88
2023-08-13T03:11:18.448Z,96118.00
2023-08-13T03:13:46.233Z,96127.72
2023-08-13T03:16:13.849Z,96124.03
2023-08-13T03:18:42.402Z,96125.09
2023-08-13T03:21:11.239Z,96128.22
2023-08-13T03:23:38.752Z,96127.19
2023-08-13T03:26:06.256Z,96125.34
2023-08-13T03:28:33.746Z,96134.25
2023-08-13T03:31:02.286Z,96135.81
2023-08-13T03:33:29.792Z,96135.81
2023-08-13T03:35:57.293Z,96138.44
2023-08-13T03:38:26.141Z,96152.06
2023-08-13T03:40:55.408Z,96147.63
2023-08-13T03:43:23.019Z,96149.44
2023-08-13T03:45:50.634Z,96150.78
2023-08-13T03:48:18.187Z,96141.06
2023-08-13T03:50:46.176Z,96142.09
2023-08-13T03:53:13.830Z,96149.72
2023-08-13T03:55:42.692Z,96157.56
2023-08-13T03:58:10.272Z,96155.47
2023-08-13T04:00:37.764Z,96152.59
2023-08-13T04:03:19.562Z,96147.34
2023-08-13T04:05:52.774Z,96138.72
2023-08-13T04:08:20.306Z,96153.38
2023-08-13T04:10:49.138Z,96153.91
2023-08-13T04:13:16.623Z,96153.63
2023-08-13T04:15:44.108Z,96149.44
2023-08-13T04:18:11.597Z,96143.66
2023-08-13T04:20:40.913Z,96155.47
2023-08-13T04:23:08.658Z,96149.69
2023-08-13T04:25:36.233Z,96136.31
2023-08-13T04:28:05.482Z,96137.63
2023-08-13T04:30:33.038Z,96144.94
2023-08-13T04:33:00.568Z,96137.88
2023-08-13T04:35:28.107Z,96142.59
2023-08-13T04:37:55.621Z,96133.91
2023-08-13T04:40:23.218Z,96138.09
2023-08-13T04:42:50.669Z,96137.31
2023-08-13T04:45:19.720Z,96141.72
2023-08-13T04:47:47.234Z,96155.06
2023-08-13T04:50:15.256Z,96165.03
2023-08-13T04:52:42.744Z,96146.97
2023-08-13T04:55:10.445Z,96152.19
2023-08-13T04:57:37.955Z,96134.66
2023-08-13T05:00:06.723Z,96139.91
2023-08-13T05:02:36.163Z,96148.56
2023-08-13T05:05:03.979Z,96153.56
2023-08-13T05:07:31.529Z,96154.59
2023-08-13T05:09:59.127Z,96161.69
2023-08-13T05:12:26.686Z,96151.47
2023-08-13T05:14:54.195Z,96142.59
2023-08-13T05:17:23.044Z,96152.00
2023-08-13T05:19:52.006Z,96163.31
2023-08-13T05:22:19.836Z,96158.59
2023-08-13T05:24:48.314Z,96149.72
2023-08-13T05:27:16.114Z,96149.19
2023-08-13T05:29:43.650Z,96147.34
2023-08-13T05:32:11.176Z,96148.66
2023-08-13T05:34:38.715Z,96140.53
2023-08-13T05:37:07.707Z,96144.72
2023-08-13T05:39:35.267Z,96149.97
2023-08-13T05:42:02.738Z,96142.84
2023-08-13T05:44:30.223Z,96140.50
2023-08-13T05:46:57.744Z,96149.66
2023-08-13T05:49:25.250Z,96161.00
2023-08-13T05:51:52.825Z,96155.47
2023-08-13T05:54:22.238Z,96155.72
2023-08-13T05:56:50.146Z,96153.88
2023-08-13T05:59:17.897Z,96146.78
2023-08-13T06:01:45.402Z,96146.25
2023-08-13T06:04:12.994Z,96150.66
2023-08-13T06:06:40.509Z,96151.66
2023-08-13T06:09:07.993Z,96147.16
2023-08-13T06:11:36.805Z,96154.97
2023-08-13T06:14:04.511Z,96160.97
2023-08-13T06:16:32.074Z,96162.25
2023-08-13T06:18:59.602Z,96160.91
2023-08-13T06:21:27.164Z,96153.75
2023-08-13T06:23:54.658Z,96156.78
2023-08-13T06:26:22.160Z,96159.66
2023-08-13T06:28:50.998Z,96147.69
2023-08-13T06:31:36.512Z,96130.78
2023-08-13T06:34:05.957Z,96148.25
2023-08-13T06:36:33.469Z,96151.75
2023-08-13T06:39:00.930Z,96128.31
2023-08-13T06:41:28.433Z,96128.72
2023-08-13T06:43:57.253Z,96133.53
2023-08-13T06:46:24.858Z,96136.66
2023-08-13T06:48:52.394Z,96128.06
2023-08-13T06:51:19.859Z,96126.88
2023-08-13T06:53:47.337Z,96134.31
2023-08-13T06:56:14.811Z,96120.94
2023-08-13T06:58:42.289Z,96128.00
2023-08-13T07:01:11.811Z,96121.09
2023-08-13T07:03:39.331Z,96126.75
2023-08-13T07:06:06.856Z,96124.06
2023-08-13T07:08:34.393Z,96133.38
2023-08-13T07:11:01.871Z,96117.19
2023-08-13T07:13:29.393Z,96122.03
2023-08-13T07:15:56.962Z,96129.53
2023-08-13T07:18:25.874Z,96126.91
2023-08-13T07:20:53.479Z,96129.44
2023-08-13T07:23:20.948Z,96124.34
2023-08-13T07:25:48.436Z,96119.31
2023-08-13T07:28:15.876Z,96124.38
2023-08-13T07:30:44.171Z,96124.19
2023-08-13T07:33:11.686Z,96127.56
2023-08-13T07:35:42.016Z,96122.50
2023-08-13T07:38:09.522Z,96117.59
2023-08-13T07:40:37.211Z,96115.94
2023-08-13T07:43:05.003Z,96124.97
2023-08-13T07:45:32.642Z,96119.69
2023-08-13T07:48:00.324Z,96119.91
2023-08-13T07:50:27.926Z,96129.28
2023-08-13T07:52:56.707Z,96127.72
2023-08-13T07:55:24.447Z,96132.84
2023-08-13T07:57:51.989Z,96132.28
2023-08-13T08:00:19.693Z,96130.06
2023-08-13T08:02:47.223Z,96130.38
2023-08-13T08:05:14.788Z,96128.44
2023-08-13T08:07:42.263Z,96132.78
2023-08-13T08:10:11.338Z,96127.81
2023-08-13T08:12:38.837Z,96126.53
2023-08-13T08:15:07.168Z,96125.22
2023-08-13T08:17:35.587Z,96128.34
2023-08-13T08:20:03.957Z,96128.34
2023-08-13T08:22:32.041Z,96121.72
2023-08-13T08:24:59.505Z,96121.72
2023-08-13T08:27:28.494Z,96113.97
2023-08-13T08:29:56.044Z,96124.22
2023-08-13T08:32:23.519Z,96122.56
2023-08-13T08:34:51.123Z,96115.91
2023-08-13T08:37:18.621Z,96120.84
2023-08-13T08:39:46.111Z,96124.25
2023-08-13T08:42:14.162Z,96116.03
2023-08-13T08:44:44.664Z,96115.34
2023-08-13T08:47:12.200Z,96122.56
2023-08-13T08:49:39.752Z,96113.63
2023-08-13T08:52:08.241Z,96113.31
2023-08-13T08:54:40.737Z,96123.91
2023-08-13T08:57:08.434Z,96106.94
2023-08-13T08:59:36.450Z,96108.19
2023-08-13T09:02:06.041Z,96111.06
2023-08-13T09:04:33.528Z,96113.00
2023-08-13T09:07:03.092Z,96110.66
2023-08-13T09:09:31.789Z,96096.63
2023-08-13T09:12:00.771Z,96108.22
2023-08-13T09:14:28.800Z,96098.53
2023-08-13T09:16:58.481Z,96104.91
2023-08-13T09:19:28.589Z,96095.44
2023-08-13T09:21:57.831Z,96093.59
2023-08-13T09:24:34.418Z,96090.31
2023-08-13T09:27:02.366Z,96095.63
2023-08-13T09:29:31.213Z,96095.47
2023-08-13T09:31:59.436Z,96096.03
2023-08-13T09:34:29.324Z,96095.56
2023-08-13T09:36:57.544Z,96095.16
2023-08-13T09:39:25.570Z,96087.81
2023-08-13T09:41:54.093Z,96082.16
2023-08-13T09:44:25.361Z,96090.13
2023-08-13T09:46:55.900Z,96089.78
2023-08-13T09:49:24.335Z,96088.44
2023-08-13T09:51:54.224Z,96077.06
2023-08-13T09:54:30.714Z,96081.53
2023-08-13T09:57:03.728Z,96074.81
2023-08-13T09:59:33.963Z,96076.25
2023-08-13T10:02:01.736Z,96068.56
2023-08-13T10:04:30.741Z,96058.28
2023-08-13T10:07:01.056Z,96082.94
2023-08-13T10:09:28.753Z,96085.91
2023-08-13T10:11:56.818Z,96082.94
2023-08-13T10:14:24.718Z,96079.19
2023-08-13T10:16:52.433Z,96072.66
2023-08-13T10:19:20.763Z,96079.72
2023-08-13T10:21:57.616Z,96078.47
2023-08-13T10:24:30.173Z,96069.72
2023-08-13T10:26:57.741Z,96065.03
2023-08-13T10:29:26.022Z,96070.16
2023-08-13T10:31:57.586Z,96081.22
2023-08-13T10:34:40.614Z,96059.16
2023-08-13T10:37:26.402Z,96066.97
2023-08-13T10:40:09.439Z,96072.63
2023-08-13T10:42:55.649Z,96073.72
2023-08-13T10:45:25.730Z,96068.72
2023-08-13T10:47:56.298Z,96075.13
2023-08-13T10:50:28.031Z,96059.97
2023-08-13T10:52:57.185Z,96069.66
2023-08-13T10:55:26.589Z,96061.16
2023-08-13T10:57:54.616Z,96067.06
2023-08-13T11:00:24.844Z,96059.47
2023-08-13T11:02:54.471Z,96050.94
2023-08-13T11:05:23.465Z,96052.72
2023-08-13T11:07:52.004Z,96048.75
2023-08-13T11:10:21.372Z,96057.53
2023-08-13T11:12:51.430Z,96059.69
2023-08-13T11:15:19.250Z,96059.16
2023-08-13T11:17:49.008Z,96058.22
2023-08-13T11:20:19.515Z,96055.69
2023-08-13T11:22:47.584Z,96051.41
2023-08-13T11:25:15.576Z,96058.59
2023-08-13T11:27:43.593Z,96055.31
2023-08-13T11:30:13.670Z,96052.66
2023-08-13T11:32:41.421Z,96057.88
2023-08-13T11:35:11.022Z,96049.91
2023-08-13T11:37:39.410Z,96048.69
2023-08-13T11:40:11.750Z,96052.78
2023-08-13T11:42:40.072Z,96038.97
2023-08-13T11:45:15.594Z,96054.00
2023-08-13T11:47:44.000Z,96048.75
2023-08-13T11:50:20.013Z,96046.63
2023-08-13T11:53:04.040Z,96050.13
2023-08-13T11:55:31.765Z,96046.53
2023-08-13T11:57:59.989Z,96059.66
2023-08-13T12:00:28.920Z,96055.19
2023-08-13T12:02:57.799Z,96055.44
2023-08-13T12:05:27.409Z,96050.78
2023-08-13T12:07:55.081Z,96043.00
2023-08-13T12:10:22.753Z,96034.75
2023-08-13T12:12:50.307Z,96037.09
2023-08-13T12:15:22.703Z,96043.09
2023-08-13T12:17:51.587Z,96038.69
2023-08-13T12:20:19.131Z,96047.13
2023-08-13T12:22:47.092Z,96041.97
2023-08-13T12:25:14.578Z,96025.97
2023-08-13T12:27:43.121Z,96035.19
2023-08-13T12:30:12.352Z,96032.59
2023-08-13T12:32:39.889Z,96030.84
2023-08-13T12:35:10.693Z,96035.28
2023-08-13T12:37:38.432Z,96037.75
2023-08-13T12:40:10.016Z,96034.88
2023-08-13T12:42:37.642Z,96030.38
2023-08-13T12:45:07.008Z,96028.13
2023-08-13T12:47:34.891Z,96030.00
2023-08-13T12:50:02.613Z,96025.34
2023-08-13T12:52:31.568Z,96026.81
2023-08-13T12:54:59.113Z,96006.00
2023-08-13T12:57:26.771Z,96025.25
2023-08-13T12:59:54.882Z,96017.28
2023-08-13T13:02:22.545Z,96014.56
2023-08-13T13:04:50.258Z,96021.22
2023-08-13T13:07:16.854Z,96017.06
2023-08-13T13:09:47.501Z,96016.81
2023-08-13T13:12:15.282Z,96019.47
2023-08-13T13:14:42.906Z,96012.50
2023-08-13T13:17:10.753Z,96017.72
2023-08-13T13:19:38.967Z,96013.75
2023-08-13T13:22:06.476Z,96012.31
2023-08-13T13:24:34.201Z,96012.44
2023-08-13T13:27:03.312Z,96019.00
2023-08-13T13:29:30.872Z,96000.16
2023-08-13T13:31:58.489Z,96006.97
2023-08-13T13:34:26.022Z,96010.88
2023-08-13T13:36:53.675Z,96002.03
2023-08-13T13:39:21.195Z,96016.63
2023-08-13T13:41:48.707Z,96007.69
2023-08-13T13:44:17.624Z,96005.94
2023-08-13T13:46:45.209Z,96006.41
2023-08-13T13:49:12.756Z,96008.47
2023-08-13T13:51:40.949Z,96007.69
2023-08-13T13:54:08.452Z,96007.16
2023-08-13T13:56:36.015Z,96004.75
2023-08-13T13:59:04.133Z,96000.03
2023-08-13T14:01:32.978Z,95997.53
2023-08-13T14:04:00.715Z,95993.56
2023-08-13T14:06:28.437Z,95997.06
2023-08-13T14:08:55.932Z,96000.63
2023-08-13T14:11:23.427Z,95992.50
2023-08-13T14:13:50.948Z,95994.09
2023-08-13T14:16:18.475Z,95984.81
2023-08-13T14:18:47.339Z,95987.75
2023-08-13T14:21:14.857Z,95976.53
2023-08-13T14:23:42.393Z,95981.75
2023-08-13T14:26:09.915Z,95976.53
2023-08-13T14:28:37.478Z,95974.66
2023-08-13T14:31:05.137Z,95981.97
2023-08-13T14:33:32.641Z,95988.66
2023-08-13T14:36:01.486Z,95974.31
2023-08-13T14:38:29.018Z,95982.03
2023-08-13T14:40:56.581Z,95974.81
2023-08-13T14:43:24.090Z,95980.94
2023-08-13T14:45:51.850Z,95991.88
2023-08-13T14:48:19.438Z,95969.63
2023-08-13T14:50:47.309Z,95963.72
2023-08-13T14:53:16.253Z,95960.38
2023-08-13T14:55:44.007Z,95956.94
2023-08-13T14:58:11.556Z,95973.50
2023-08-13T15:00:39.171Z,95972.28
2023-08-13T15:03:06.773Z,95976.44
2023-08-13T15:05:35.990Z,95963.78
2023-08-13T15:08:03.694Z,95971.41
2023-08-13T15:10:32.580Z,95965.97
2023-08-13T15:13:00.083Z,95964.16
2023-08-13T15:15:27.714Z,95951.91
2023-08-13T15:17:55.249Z,95953.22
2023-08-13T15:20:22.804Z,95946.56
2023-08-13T15:22:50.682Z,95944.31
2023-08-13T15:25:18.335Z,95941.59
2023-08-13T15:27:47.182Z,95934.66
2023-08-13T15:30:15.746Z,95932.66
2023-08-13T15:32:43.498Z,95922.66
2023-08-13T15:35:11.315Z,95935.81
2023-08-13T15:37:39.461Z,95933.53
2023-08-13T15:40:08.634Z,95939.44
2023-08-13T15:42:36.677Z,95927.56
2023-08-13T15:45:06.451Z,95936.31
2023-08-13T15:47:34.061Z,95936.78
2023-08-13T15:50:01.575Z,95932.09
2023-08-13T15:52:29.192Z,95935.56
2023-08-13T15:54:56.857Z,95932.66
2023-08-13T15:57:24.442Z,95933.06
2023-08-13T15:59:51.980Z,95921.78
2023-08-13T16:02:20.836Z,95932.31
2023-08-13T16:04:48.510Z,95928.56
2023-08-13T16:07:16.866Z,95927.88
2023-08-13T16:09:44.385Z,95931.13
2023-08-13T16:12:11.924Z,95930.78
2023-08-13T16:14:39.467Z,95927.47
2023-08-13T16:17:07.112Z,95933.66
2023-08-13T16:19:38.035Z,95933.56
2023-08-13T16:22:05.814Z,95925.84
2023-08-13T16:24:33.389Z,95920.66
2023-08-13T16:27:02.244Z,95905.75
2023-08-13T16:29:29.740Z,95909.66
2023-08-13T16:31:59.246Z,95888.44
2023-08-13T16:34:27.712Z,95900.44
2023-08-13T16:36:56.549Z,95906.88
2023-08-13T16:39:24.111Z,95914.22
2023-08-13T16:41:51.615Z,95914.81
2023-08-13T16:44:19.100Z,95916.00
2023-08-13T16:46:46.605Z,95902.47
2023-08-13T16:49:14.093Z,95914.75
2023-08-13T16:51:41.599Z,95921.00
2023-08-13T16:54:10.422Z,95922.09
2023-08-13T16:56:37.967Z,95910.41
2023-08-13T16:59:05.940Z,95917.19
2023-08-13T17:01:33.587Z,95912.13
2023-08-13T17:04:02.931Z,95900.06
2023-08-13T17:06:30.633Z,95906.13
2023-08-13T17:08:58.328Z,95900.72
2023-08-13T17:11:27.139Z,95909.06
2023-08-13T17:13:54.638Z,95903.63
2023-08-13T17:16:22.158Z,95911.16
2023-08-13T17:18:49.733Z,95905.50
2023-08-13T17:21:17.738Z,95916.84
2023-08-13T17:23:45.346Z,95914.78
2023-08-13T17:26:12.855Z,95916.19
2023-08-13T17:28:41.691Z,95917.03
2023-08-13T17:31:09.203Z,95919.53
2023-08-13T17:33:36.752Z,95931.16
2023-08-13T17:36:04.637Z,95920.53
2023-08-13T17:38:32.179Z,95921.44
2023-08-13T17:40:59.727Z,95923.75
2023-08-13T17:43:27.405Z,95925.22
2023-08-13T17:45:56.391Z,95920.88
2023-08-13T17:48:23.951Z,95925.91
2023-08-13T17:50:51.605Z,95918.22
2023-08-13T17:53:19.106Z,95924.34
2023-08-13T17:55:46.613Z,95916.44
2023-08-13T17:58:14.123Z,95929.22
2023-08-13T18:00:41.627Z,95923.28
2023-08-13T18:03:10.659Z,95929.28
2023-08-13T18:05:38.317Z,95934.00
2023-08-13T18:08:15.432Z,95931.81
2023-08-13T18:10:43.628Z,95929.88
2023-08-13T18:13:11.142Z,95936.41
2023-08-13T18:15:38.721Z,95921.47
2023-08-13T18:18:07.091Z,95916.38
2023-08-13T18:20:36.000Z,95929.72
2023-08-13T18:23:04.262Z,95940.41
2023-08-13T18:25:32.118Z,95925.44
2023-08-13T18:28:00.019Z,95932.88
2023-08-13T18:30:27.516Z,95941.78
2023-08-13T18:32:55.060Z,95938.03
2023-08-13T18:35:22.581Z,95936.31
2023-08-13T18:37:51.459Z,95939.56
2023-08-13T18:40:19.151Z,95941.56
2023-08-13T18:42:46.778Z,95948.41
2023-08-13T18:45:14.322Z,95945.09
2023-08-13T18:47:41.936Z,95947.75
2023-08-13T18:50:10.594Z,95945.56
2023-08-13T18:52:41.379Z,95939.00
2023-08-13T18:55:11.151Z,95943.06
2023-08-13T18:57:39.764Z,95931.47
2023-08-13T19:00:08.997Z,95951.09
2023-08-13T19:02:36.608Z,95950.75
2023-08-13T19:05:04.243Z,95944.78
2023-08-13T19:07:31.775Z,95947.69
2023-08-13T19:09:59.298Z,95953.44
2023-08-13T19:12:28.117Z,95951.53
2023-08-13T19:14:57.453Z,95961.16
2023-08-13T19:17:24.991Z,95957.31
2023-08-13T19:19:52.619Z,95958.25
2023-08-13T19:22:20.100Z,95963.53
2023-08-13T19:24:47.612Z,95967.69
2023-08-13T19:27:15.164Z,95978.00
2023-08-13T19:29:44.141Z,95979.09
2023-08-13T19:32:11.644Z,95973.22
2023-08-13T19:34:39.571Z,95983.88
2023-08-13T19:37:07.079Z,95976.47
2023-08-13T19:39:35.619Z,95975.78
2023-08-13T19:42:03.145Z,95980.50
2023-08-13T19:44:37.784Z,95985.38
2023-08-13T19:47:08.136Z,95996.03
2023-08-13T19:49:35.710Z,95997.00
2023-08-13T19:52:03.728Z,95984.38
2023-08-13T19:54:31.287Z,95988.66
2023-08-13T19:56:58.795Z,95983.47
2023-08-13T19:59:26.280Z,95986.53
2023-08-13T20:01:53.823Z,95984.28
2023-08-13T20:04:22.689Z,95990.69
2023-08-13T20:06:50.204Z,95986.66
2023-08-13T20:09:17.733Z,95980.88
2023-08-13T20:11:45.302Z,95981.38
2023-08-13T20:14:12.847Z,95983.03
2023-08-13T20:16:40.329Z,95988.78
2023-08-13T20:19:07.889Z,95980.50
2023-08-13T20:21:48.173Z,95989.78
2023-08-13T20:24:16.129Z,95988.53
2023-08-13T20:26:43.897Z,95972.16
2023-08-13T20:29:13.961Z,95988.44
2023-08-13T20:31:43.024Z,95995.91
2023-08-13T20:34:11.104Z,95978.72
2023-08-13T20:36:39.650Z,95994.44
2023-08-13T20:39:09.910Z,95992.28
2023-08-13T20:41:37.688Z,95983.16
2023-08-13T20:44:05.898Z,95981.22
2023-08-13T20:46:33.777Z,95994.22
2023-08-13T20:49:05.240Z,95998.91
2023-08-13T20:51:35.113Z,95998.81
2023-08-13T20:54:02.698Z,95994.44
2023-08-13T20:56:33.278Z,95999.25
2023-08-13T20:59:00.780Z,96000.34
2023-08-13T21:01:28.369Z,95986.75
2023-08-13T21:03:56.020Z,95998.78
2023-08-13T21:06:23.597Z,95991.75
2023-08-13T21:08:51.101Z,96004.63
2023-08-13T21:11:18.676Z,95995.97
2023-08-13T21:13:47.523Z,95998.63
2023-08-13T21:16:15.228Z,95995.22
2023-08-13T21:18:42.774Z,96000.78
2023-08-13T21:21:10.244Z,95997.88
2023-08-13T21:23:37.721Z,95990.06
2023-08-13T21:26:05.278Z,95991.88
2023-08-13T21:28:32.754Z,96001.91
2023-08-13T21:31:01.683Z,95987.72
2023-08-13T21:33:29.271Z,95989.13
2023-08-13T21:35:56.855Z,95986.53
2023-08-13T21:38:24.361Z,95990.72
2023-08-13T21:40:51.839Z,95989.44
2023-08-13T21:43:19.409Z,95978.44
2023-08-13T21:45:46.928Z,95981.34
2023-08-13T21:48:15.860Z,95977.97
2023-08-13T21:50:43.606Z,95999.75
2023-08-13T21:53:11.238Z,95993.19
2023-08-13T21:55:38.776Z,95997.41
2023-08-13T21:58:06.273Z,95998.22
2023-08-13T22:00:33.817Z,95993.81
2023-08-13T22:03:01.369Z,95992.03
2023-08-13T22:05:31.611Z,95989.44
2023-08-13T22:07:59.214Z,95989.97
2023-08-13T22:10:26.714Z,95974.50
2023-08-13T22:12:54.191Z,95995.75
2023-08-13T22:15:21.689Z,95989.72
2023-08-13T22:17:49.212Z,95987.63
2023-08-13T22:20:16.781Z,95993.69
2023-08-13T22:22:45.697Z,95985.59
2023-08-13T22:25:14.420Z,95993.19
2023-08-13T22:27:41.941Z,95985.34
2023-08-13T22:30:10.461Z,95987.19
2023-08-13T22:32:38.799Z,95995.06
2023-08-13T22:35:07.719Z,95992.19
2023-08-13T22:37:35.516Z,95982.50
2023-08-13T22:40:04.854Z,95984.13
2023-08-13T22:42:32.375Z,95980.75
2023-08-13T22:44:59.863Z,95971.31
2023-08-13T22:47:27.409Z,95985.19
2023-08-13T22:49:55.009Z,95988.06
2023-08-13T22:52:22.513Z,95992.00
2023-08-13T22:54:50.054Z,95987.81
2023-08-13T22:57:18.982Z,95983.88
2023-08-13T22:59:46.474Z,95985.72
2023-08-13T23:02:13.993Z,95987.81
2023-08-13T23:04:41.488Z,95989.41
2023-08-13T23:07:09.053Z,95987.81
2023-08-13T23:09:36.602Z,95993.84
2023-08-13T23:12:04.887Z,95983.13
2023-08-13T23:14:33.750Z,95970.56
2023-08-13T23:17:01.594Z,95994.66
2023-08-13T23:19:29.096Z,95996.75
2023-08-13T23:21:56.603Z,95989.41
2023-08-13T23:24:25.192Z,96007.22
2023-08-13T23:26:52.933Z,95994.13
2023-08-13T23:29:21.004Z,95979.47
2023-08-13T23:31:50.324Z,95975.03
2023-08-13T23:34:17.940Z,95990.97
2023-08-13T23:36:45.633Z,95999.34
2023-08-13T23:39:13.157Z,95998.31
2023-08-13T23:41:41.956Z,95997.25
2023-08-13T23:44:09.534Z,96008.00
2023-08-13T23:46:37.284Z,95982.28
2023-08-13T23:49:06.228Z,95999.06
2023-08-13T23:51:33.741Z,96007.69
2023-08-13T23:54:01.299Z,96012.13
2023-08-13T23:56:28.957Z,96012.66
2023-08-13T23:58:56.442Z,95999.56
